createdAt,value
2022-11-27T00:00:40.354Z,100834.63
2022-11-27T00:03:10.033Z,100841.03
2022-11-27T00:05:37.949Z,100838.06
2022-11-27T00:08:05.958Z,100836.41
2022-11-27T00:10:33.874Z,100837.13
2022-11-27T00:13:01.628Z,100837.41
2022-11-27T00:15:29.485Z,100832.94
2022-11-27T00:17:58.577Z,100839.94
2022-11-27T00:20:29.813Z,100839.88
2022-11-27T00:22:59.553Z,100840.69
2022-11-27T00:25:29.177Z,100836.03
2022-11-27T00:27:58.742Z,100844.91
2022-11-27T00:30:26.587Z,100839.66
2022-11-27T00:32:57.020Z,100838.03
2022-11-27T00:35:24.796Z,100848.84
2022-11-27T00:37:54.368Z,100844.59
2022-11-27T00:40:24.855Z,100839.81
2022-11-27T00:42:55.334Z,100838.22
2022-11-27T00:45:25.790Z,100838.16
2022-11-27T00:47:56.250Z,100844.34
2022-11-27T00:50:26.720Z,100841.94
2022-11-27T00:52:54.441Z,100840.06
2022-11-27T00:55:22.214Z,100842.53
2022-11-27T00:57:52.664Z,100828.50
2022-11-27T01:00:20.931Z,100844.91
2022-11-27T01:02:51.456Z,100844.75
2022-11-27T01:05:19.479Z,100847.56
2022-11-27T01:07:49.150Z,100842.31
2022-11-27T01:10:18.809Z,100845.09
2022-11-27T01:12:50.407Z,100843.53
2022-11-27T01:15:20.862Z,100848.94
2022-11-27T01:17:50.482Z,100849.81
2022-11-27T01:20:20.153Z,100854.03
2022-11-27T01:22:50.515Z,100848.50
2022-11-27T01:25:24.203Z,100844.97
2022-11-27T01:27:54.696Z,100848.59
2022-11-27T01:30:24.358Z,100846.06
2022-11-27T01:32:53.940Z,100845.88
2022-11-27T01:35:23.547Z,100849.47
2022-11-27T01:37:53.039Z,100841.78
2022-11-27T01:40:23.675Z,100841.69
2022-11-27T01:42:53.137Z,100845.16
2022-11-27T01:45:23.575Z,100836.06
2022-11-27T01:48:01.616Z,100828.50
2022-11-27T01:50:39.068Z,100836.31
2022-11-27T01:53:18.631Z,100829.22
2022-11-27T01:55:56.602Z,100823.16
2022-11-27T01:58:30.212Z,100831.75
2022-11-27T02:01:00.657Z,100834.47
2022-11-27T02:03:30.275Z,100837.94
2022-11-27T02:05:59.811Z,100838.31
2022-11-27T02:08:29.455Z,100841.56
2022-11-27T02:11:27.757Z,100839.66
2022-11-27T02:14:36.270Z,100834.06
2022-11-27T02:17:17.568Z,100837.75
2022-11-27T02:20:49.155Z,100836.19
2022-11-27T02:23:53.636Z,100834.69
2022-11-27T02:26:50.602Z,100835.28
2022-11-27T02:29:41.664Z,100836.25
2022-11-27T02:32:52.550Z,100830.09
2022-11-27T02:35:50.246Z,100843.38
2022-11-27T02:38:32.670Z,100833.31
2022-11-27T02:41:34.039Z,100845.84
2022-11-27T02:44:06.720Z,100844.78
2022-11-27T02:46:37.919Z,100848.06
2022-11-27T02:49:13.814Z,100854.44
2022-11-27T02:51:55.966Z,100866.69
2022-11-27T02:54:30.417Z,100861.47
2022-11-27T02:57:03.868Z,100854.03
2022-11-27T02:59:37.503Z,100845.78
2022-11-27T03:02:17.592Z,100839.56
2022-11-27T03:04:57.012Z,100836.03
2022-11-27T03:07:40.386Z,100847.22
2022-11-27T03:10:55.696Z,100847.50
2022-11-27T03:13:26.610Z,100839.84
2022-11-27T03:16:08.073Z,100855.44
2022-11-27T03:19:03.857Z,100852.66
2022-11-27T03:21:40.226Z,100852.72
2022-11-27T03:24:11.128Z,100857.34
2022-11-27T03:26:42.019Z,100859.19
2022-11-27T03:29:35.938Z,100861.91
2022-11-27T03:32:06.117Z,100860.56
2022-11-27T03:34:37.087Z,100865.94
2022-11-27T03:37:06.891Z,100862.31
2022-11-27T03:39:37.272Z,100858.38
2022-11-27T03:42:18.385Z,100854.84
2022-11-27T03:45:18.128Z,100866.34
2022-11-27T03:48:17.792Z,100858.38
2022-11-27T03:51:41.008Z,100859.47
2022-11-27T03:54:59.203Z,100852.16
2022-11-27T03:57:41.526Z,100859.19
2022-11-27T04:00:12.763Z,100859.94
2022-11-27T04:02:48.616Z,100864.38
2022-11-27T04:05:19.673Z,100863.34
2022-11-27T04:07:49.809Z,100862.34
2022-11-27T04:10:19.542Z,100866.00
2022-11-27T04:12:49.167Z,100872.31
2022-11-27T04:15:18.904Z,100872.19
2022-11-27T04:17:49.309Z,100863.41
2022-11-27T04:20:19.692Z,100866.13
2022-11-27T04:22:49.319Z,100867.81
2022-11-27T04:25:19.887Z,100867.84
2022-11-27T04:27:50.121Z,100864.31
2022-11-27T04:30:20.197Z,100868.09
2022-11-27T04:32:49.867Z,100866.13
2022-11-27T04:35:19.416Z,100867.78
2022-11-27T04:37:48.943Z,100858.16
2022-11-27T04:40:19.069Z,100851.78
2022-11-27T04:42:48.671Z,100851.97
2022-11-27T04:45:18.343Z,100859.00
2022-11-27T04:47:48.051Z,100855.41
2022-11-27T04:50:17.690Z,100854.38
2022-11-27T04:52:47.248Z,100853.69
2022-11-27T04:55:17.030Z,100853.75
2022-11-27T04:57:46.684Z,100859.72
2022-11-27T05:00:17.382Z,100854.44
2022-11-27T05:02:46.987Z,100855.31
2022-11-27T05:05:17.406Z,100855.59
2022-11-27T05:07:47.090Z,100846.75
2022-11-27T05:10:16.835Z,100839.50
2022-11-27T05:12:46.395Z,100860.63
2022-11-27T05:15:16.159Z,100865.00
2022-11-27T05:17:45.787Z,100860.44
2022-11-27T05:20:15.507Z,100858.78
2022-11-27T05:22:46.231Z,100859.56
2022-11-27T05:25:15.924Z,100850.00
2022-11-27T05:27:45.424Z,100852.47
2022-11-27T05:30:15.036Z,100848.31
2022-11-27T05:32:42.762Z,100844.88
2022-11-27T05:35:12.294Z,100851.72
2022-11-27T05:37:41.760Z,100854.72
2022-11-27T05:40:11.802Z,100853.63
2022-11-27T05:42:41.382Z,100864.22
2022-11-27T05:45:11.349Z,100858.47
2022-11-27T05:47:40.852Z,100864.38
2022-11-27T05:50:10.590Z,100865.25
2022-11-27T05:52:40.340Z,100859.41
2022-11-27T05:55:10.177Z,100863.69
2022-11-27T05:57:39.922Z,100874.09
2022-11-27T06:00:10.568Z,100874.78
2022-11-27T06:02:40.149Z,100879.34
2022-11-27T06:05:09.855Z,100875.69
2022-11-27T06:07:39.518Z,100870.16
2022-11-27T06:10:09.665Z,100869.41
2022-11-27T06:12:39.197Z,100873.97
2022-11-27T06:15:09.341Z,100875.53
2022-11-27T06:17:38.843Z,100874.72
2022-11-27T06:20:09.346Z,100873.00
2022-11-27T06:22:38.866Z,100863.22
2022-11-27T06:25:09.511Z,100864.84
2022-11-27T06:27:39.089Z,100859.72
2022-11-27T06:30:10.062Z,100864.91
2022-11-27T06:32:39.555Z,100862.97
2022-11-27T06:35:11.225Z,100864.81
2022-11-27T06:37:40.697Z,100873.00
2022-11-27T06:40:10.921Z,100869.75
2022-11-27T06:42:40.400Z,100872.06
2022-11-27T06:45:10.912Z,100873.66
2022-11-27T06:47:40.531Z,100874.78
2022-11-27T06:50:10.653Z,100876.31
2022-11-27T06:52:40.827Z,100887.59
2022-11-27T06:55:10.427Z,100881.47
2022-11-27T06:57:40.133Z,100886.91
2022-11-27T07:00:10.606Z,100890.53
2022-11-27T07:02:40.198Z,100883.31
2022-11-27T07:05:10.022Z,100890.25
2022-11-27T07:07:43.655Z,100891.97
2022-11-27T07:10:13.480Z,100884.88
2022-11-27T07:12:42.982Z,100887.59
2022-11-27T07:15:12.522Z,100885.66
2022-11-27T07:17:42.114Z,100886.47
2022-11-27T07:20:12.433Z,100888.59
2022-11-27T07:22:42.371Z,100892.09
2022-11-27T07:25:11.947Z,100886.78
2022-11-27T07:27:41.429Z,100894.56
2022-11-27T07:30:11.965Z,100890.06
2022-11-27T07:32:41.584Z,100883.88
2022-11-27T07:35:11.920Z,100878.63
2022-11-27T07:37:41.534Z,100877.19
2022-11-27T07:40:11.450Z,100880.34
2022-11-27T07:42:41.048Z,100882.19
2022-11-27T07:45:12.144Z,100872.00
2022-11-27T07:47:40.480Z,100874.91
2022-11-27T07:50:12.240Z,100877.84
2022-11-27T07:52:42.636Z,100869.09
2022-11-27T07:55:10.930Z,100872.44
2022-11-27T07:57:40.864Z,100879.59
2022-11-27T08:00:11.861Z,100870.88
2022-11-27T08:02:41.366Z,100883.38
2022-11-27T08:05:13.172Z,100879.97
2022-11-27T08:07:43.206Z,100883.56
2022-11-27T08:10:12.863Z,100887.09
2022-11-27T08:12:42.518Z,100895.50
2022-11-27T08:15:13.446Z,100887.44
2022-11-27T08:17:43.116Z,100891.97
2022-11-27T08:20:13.707Z,100894.59
2022-11-27T08:22:43.415Z,100901.75
2022-11-27T08:25:13.232Z,100898.78
2022-11-27T08:27:43.541Z,100906.69
2022-11-27T08:30:13.593Z,100906.63
2022-11-27T08:32:44.127Z,100912.94
2022-11-27T08:35:13.772Z,100911.88
2022-11-27T08:37:43.393Z,100909.16
2022-11-27T08:40:14.085Z,100913.19
2022-11-27T08:42:43.622Z,100919.25
2022-11-27T08:45:13.249Z,100911.16
2022-11-27T08:47:43.772Z,100923.50
2022-11-27T08:50:14.159Z,100915.31
2022-11-27T08:52:43.716Z,100918.94
2022-11-27T08:55:13.265Z,100915.78
2022-11-27T08:57:42.827Z,100914.53
2022-11-27T09:00:13.401Z,100914.66
2022-11-27T09:02:42.924Z,100924.00
2022-11-27T09:05:12.465Z,100915.28
2022-11-27T09:07:42.256Z,100920.66
2022-11-27T09:10:12.775Z,100919.50
2022-11-27T09:12:44.622Z,100915.06
2022-11-27T09:15:14.603Z,100918.66
2022-11-27T09:17:47.310Z,100917.13
2022-11-27T09:20:16.881Z,100919.72
2022-11-27T09:22:46.408Z,100927.84
2022-11-27T09:25:15.910Z,100927.59
2022-11-27T09:27:45.511Z,100928.50
2022-11-27T09:30:15.456Z,100935.34
2022-11-27T09:32:44.955Z,100931.41
2022-11-27T09:35:14.981Z,100931.91
2022-11-27T09:37:44.524Z,100928.25
2022-11-27T09:40:18.339Z,100926.59
2022-11-27T09:43:09.084Z,100925.09
2022-11-27T09:45:50.567Z,100922.38
2022-11-27T09:48:35.151Z,100921.56
2022-11-27T09:51:34.234Z,100915.06
2022-11-27T09:54:29.218Z,100914.63
2022-11-27T09:56:59.618Z,100913.63
2022-11-27T09:59:50.746Z,100909.97
2022-11-27T10:02:43.369Z,100908.09
2022-11-27T10:05:27.266Z,100906.09
2022-11-27T10:08:26.704Z,100903.56
2022-11-27T10:11:23.802Z,100899.09
2022-11-27T10:14:20.801Z,100901.88
2022-11-27T10:17:28.946Z,100895.84
2022-11-27T10:20:19.570Z,100894.50
2022-11-27T10:23:43.868Z,100893.38
2022-11-27T10:26:44.894Z,100880.97
2022-11-27T10:29:42.357Z,100882.94
2022-11-27T10:32:54.078Z,100891.03
2022-11-27T10:35:22.801Z,100879.31
2022-11-27T10:38:10.222Z,100889.25
2022-11-27T10:40:52.839Z,100882.56
2022-11-27T10:43:25.649Z,100881.88
2022-11-27T10:46:11.883Z,100884.59
2022-11-27T10:48:42.238Z,100880.47
2022-11-27T10:51:21.543Z,100877.38
2022-11-27T10:53:54.817Z,100880.28
2022-11-27T10:56:55.692Z,100875.53
2022-11-27T10:59:34.913Z,100878.94
2022-11-27T11:02:05.807Z,100875.66
2022-11-27T11:04:38.345Z,100875.50
2022-11-27T11:07:29.925Z,100873.03
2022-11-27T11:09:59.381Z,100874.19
2022-11-27T11:12:28.799Z,100874.66
2022-11-27T11:15:01.799Z,100872.22
2022-11-27T11:17:35.247Z,100872.03
2022-11-27T11:20:34.354Z,100864.25
2022-11-27T11:23:07.244Z,100862.44
2022-11-27T11:25:36.767Z,100863.84
2022-11-27T11:28:06.648Z,100869.59
2022-11-27T11:30:39.631Z,100858.03
2022-11-27T11:33:14.851Z,100856.00
2022-11-27T11:35:54.844Z,100848.59
2022-11-27T11:38:32.441Z,100849.97
2022-11-27T11:41:09.679Z,100845.69
2022-11-27T11:43:40.335Z,100842.97
2022-11-27T11:46:23.560Z,100839.81
2022-11-27T11:49:08.634Z,100837.41
2022-11-27T11:51:50.961Z,100836.31
2022-11-27T11:54:48.960Z,100829.63
2022-11-27T11:57:57.775Z,100833.13
2022-11-27T12:01:19.371Z,100829.50
2022-11-27T12:04:50.917Z,100821.97
2022-11-27T12:07:52.783Z,100816.28
2022-11-27T12:10:39.605Z,100818.84
2022-11-27T12:14:02.785Z,100811.06
2022-11-27T12:16:48.522Z,100803.69
2022-11-27T12:19:54.649Z,100800.16
2022-11-27T12:23:03.105Z,100793.50
2022-11-27T12:25:48.996Z,100780.38
2022-11-27T12:29:38.356Z,100791.22
2022-11-27T12:33:09.595Z,100793.69
2022-11-27T12:36:09.056Z,100800.41
2022-11-27T12:39:05.545Z,100797.41
2022-11-27T12:41:59.048Z,100803.91
2022-11-27T12:45:07.637Z,100800.31
2022-11-27T12:48:19.314Z,100805.13
2022-11-27T12:51:19.072Z,100784.25
2022-11-27T12:54:15.115Z,100790.59
2022-11-27T12:56:55.162Z,100789.97
2022-11-27T12:59:55.961Z,100793.31
2022-11-27T13:03:01.148Z,100786.91
2022-11-27T13:05:50.687Z,100790.59
2022-11-27T13:08:54.527Z,100775.88
2022-11-27T13:11:39.692Z,100782.25
2022-11-27T13:14:22.056Z,100772.19
2022-11-27T13:17:03.334Z,100772.91
2022-11-27T13:19:47.993Z,100776.00
2022-11-27T13:22:34.846Z,100774.38
2022-11-27T13:25:06.118Z,100769.13
2022-11-27T13:27:38.531Z,100770.09
2022-11-27T13:30:21.455Z,100771.25
2022-11-27T13:32:57.829Z,100765.75
2022-11-27T13:35:42.035Z,100763.88
2022-11-27T13:38:21.450Z,100771.53
2022-11-27T13:40:53.825Z,100769.38
2022-11-27T13:43:44.444Z,100768.28
2022-11-27T13:46:33.793Z,100766.28
2022-11-27T13:49:06.532Z,100759.66
2022-11-27T13:51:39.299Z,100764.31
2022-11-27T13:54:21.318Z,100774.16
2022-11-27T13:56:54.077Z,100777.81
2022-11-27T13:59:26.426Z,100767.41
2022-11-27T14:02:05.493Z,100759.72
2022-11-27T14:04:50.560Z,100767.16
2022-11-27T14:07:25.204Z,100768.94
2022-11-27T14:09:56.972Z,100762.84
2022-11-27T14:12:31.080Z,100764.47
2022-11-27T14:15:07.221Z,100760.25
2022-11-27T14:17:44.830Z,100768.59
2022-11-27T14:20:17.572Z,100765.78
2022-11-27T14:23:13.506Z,100763.69
2022-11-27T14:25:43.411Z,100763.34
2022-11-27T14:28:24.985Z,100761.47
2022-11-27T14:30:58.245Z,100763.28
2022-11-27T14:33:59.598Z,100766.09
2022-11-27T14:36:35.575Z,100763.28
2022-11-27T14:39:05.626Z,100767.75
2022-11-27T14:41:36.065Z,100757.41
2022-11-27T14:44:17.248Z,100768.34
2022-11-27T14:46:46.912Z,100759.91
2022-11-27T14:49:22.350Z,100771.19
2022-11-27T14:51:53.054Z,100765.19
2022-11-27T14:54:31.887Z,100766.81
2022-11-27T14:57:01.733Z,100757.03
2022-11-27T14:59:31.544Z,100767.16
2022-11-27T15:02:14.575Z,100769.63
2022-11-27T15:04:46.906Z,100776.41
2022-11-27T15:07:25.421Z,100774.06
2022-11-27T15:09:58.207Z,100779.41
2022-11-27T15:12:34.178Z,100782.38
2022-11-27T15:15:27.682Z,100767.16
2022-11-27T15:18:03.529Z,100784.13
2022-11-27T15:20:42.061Z,100783.09
2022-11-27T15:23:32.415Z,100788.88
2022-11-27T15:26:12.617Z,100782.06
2022-11-27T15:28:54.027Z,100782.06
2022-11-27T15:31:38.010Z,100776.91
2022-11-27T15:34:13.496Z,100777.69
2022-11-27T15:37:16.097Z,100775.06
2022-11-27T15:39:55.463Z,100780.59
2022-11-27T15:42:28.879Z,100780.59
2022-11-27T15:44:59.276Z,100775.66
2022-11-27T15:47:37.145Z,100780.06
2022-11-27T15:50:10.700Z,100780.84
2022-11-27T15:52:40.326Z,100774.41
2022-11-27T15:55:17.516Z,100780.59
2022-11-27T15:57:46.243Z,100779.41
2022-11-27T16:00:17.760Z,100776.19
2022-11-27T16:02:45.656Z,100776.38
2022-11-27T16:05:16.324Z,100778.56
2022-11-27T16:07:50.017Z,100777.72
2022-11-27T16:10:21.962Z,100778.50
2022-11-27T16:12:50.018Z,100776.81
2022-11-27T16:15:22.637Z,100778.63
2022-11-27T16:17:53.820Z,100765.44
2022-11-27T16:20:23.407Z,100770.66
2022-11-27T16:22:53.184Z,100768.53
2022-11-27T16:25:22.788Z,100770.25
2022-11-27T16:27:57.952Z,100772.84
2022-11-27T16:30:31.372Z,100766.75
2022-11-27T16:33:01.080Z,100768.44
2022-11-27T16:35:30.613Z,100769.94
2022-11-27T16:38:00.109Z,100765.50
2022-11-27T16:40:29.854Z,100761.88
2022-11-27T16:43:01.114Z,100760.56
2022-11-27T16:45:30.752Z,100764.25
2022-11-27T16:48:00.450Z,100760.25
2022-11-27T16:50:31.029Z,100764.34
2022-11-27T16:53:00.545Z,100759.78
2022-11-27T16:55:30.088Z,100752.81
2022-11-27T16:57:59.548Z,100750.03
2022-11-27T17:00:29.008Z,100760.47
2022-11-27T17:02:58.594Z,100751.72
2022-11-27T17:05:28.020Z,100746.75
2022-11-27T17:07:57.549Z,100747.50
2022-11-27T17:10:26.366Z,100750.81
2022-11-27T17:12:55.827Z,100741.41
2022-11-27T17:15:25.482Z,100744.97
2022-11-27T17:17:57.870Z,100745.63
2022-11-27T17:20:27.852Z,100742.19
2022-11-27T17:22:57.892Z,100745.25
2022-11-27T17:25:30.048Z,100743.41
2022-11-27T17:27:59.782Z,100736.34
2022-11-27T17:30:29.379Z,100735.78
2022-11-27T17:32:59.247Z,100728.06
2022-11-27T17:35:30.885Z,100733.50
2022-11-27T17:38:01.744Z,100734.19
2022-11-27T17:40:30.937Z,100732.34
2022-11-27T17:43:03.413Z,100733.06
2022-11-27T17:45:33.216Z,100722.06
2022-11-27T17:48:02.967Z,100726.31
2022-11-27T17:50:33.979Z,100727.94
2022-11-27T17:53:03.679Z,100714.09
2022-11-27T17:55:34.379Z,100714.88
2022-11-27T17:58:07.750Z,100717.59
2022-11-27T18:00:43.767Z,100716.66
2022-11-27T18:03:13.745Z,100712.50
2022-11-27T18:05:43.407Z,100714.09
2022-11-27T18:08:13.036Z,100705.97
2022-11-27T18:10:42.735Z,100714.00
2022-11-27T18:13:12.327Z,100714.38
2022-11-27T18:15:50.011Z,100715.63
2022-11-27T18:18:19.619Z,100707.03
2022-11-27T18:20:50.603Z,100709.28
2022-11-27T18:23:20.246Z,100705.16
2022-11-27T18:25:49.717Z,100703.22
2022-11-27T18:28:19.277Z,100706.66
2022-11-27T18:30:48.770Z,100703.84
2022-11-27T18:33:18.435Z,100703.06
2022-11-27T18:35:48.012Z,100696.78
2022-11-27T18:38:17.524Z,100697.81
2022-11-27T18:40:47.056Z,100700.19
2022-11-27T18:43:16.768Z,100692.69
2022-11-27T18:45:46.438Z,100683.19
2022-11-27T18:48:16.090Z,100692.41
2022-11-27T18:50:45.680Z,100682.78
2022-11-27T18:53:15.171Z,100693.03
2022-11-27T18:55:48.931Z,100696.34
2022-11-27T18:58:22.161Z,100691.97
2022-11-27T19:00:54.652Z,100686.41
2022-11-27T19:03:24.518Z,100685.69
2022-11-27T19:05:54.071Z,100691.53
2022-11-27T19:08:22.843Z,100689.06
2022-11-27T19:10:52.458Z,100684.25
2022-11-27T19:13:21.984Z,100684.13
2022-11-27T19:15:52.013Z,100676.53
2022-11-27T19:18:21.574Z,100682.25
2022-11-27T19:20:52.242Z,100677.78
2022-11-27T19:23:22.001Z,100676.59
2022-11-27T19:25:50.562Z,100676.53
2022-11-27T19:28:20.225Z,100683.72
2022-11-27T19:30:48.195Z,100675.59
2022-11-27T19:33:15.981Z,100681.84
2022-11-27T19:35:46.655Z,100675.91
2022-11-27T19:38:16.351Z,100677.47
2022-11-27T19:40:46.943Z,100682.78
2022-11-27T19:43:17.412Z,100678.22
2022-11-27T19:45:45.964Z,100681.69
2022-11-27T19:48:16.506Z,100681.03
2022-11-27T19:50:47.403Z,100677.47
2022-11-27T19:53:18.298Z,100681.72
2022-11-27T19:55:55.151Z,100681.84
2022-11-27T19:58:24.779Z,100686.44
2022-11-27T20:00:55.468Z,100679.31
2022-11-27T20:03:25.121Z,100680.59
2022-11-27T20:06:11.987Z,100677.38
2022-11-27T20:08:43.316Z,100680.97
2022-11-27T20:11:22.560Z,100682.44
2022-11-27T20:13:52.817Z,100679.97
2022-11-27T20:16:22.809Z,100679.09
2022-11-27T20:18:50.748Z,100675.38
2022-11-27T20:21:23.261Z,100674.28
2022-11-27T20:23:53.157Z,100679.00
2022-11-27T20:26:29.162Z,100665.38
2022-11-27T20:29:00.362Z,100668.47
2022-11-27T20:31:37.922Z,100674.38
2022-11-27T20:34:09.331Z,100665.75
2022-11-27T20:36:41.089Z,100666.63
2022-11-27T20:39:13.935Z,100659.94
2022-11-27T20:41:46.094Z,100667.47
2022-11-27T20:44:16.659Z,100664.41
2022-11-27T20:46:46.947Z,100654.97
2022-11-27T20:49:16.349Z,100658.66
2022-11-27T20:51:44.301Z,100656.84
2022-11-27T20:54:12.872Z,100649.03
2022-11-27T20:56:44.957Z,100654.88
2022-11-27T20:59:13.832Z,100654.03
2022-11-27T21:01:44.328Z,100658.59
2022-11-27T21:04:26.073Z,100654.81
2022-11-27T21:06:58.627Z,100654.19
2022-11-27T21:09:28.336Z,100648.94
2022-11-27T21:11:58.992Z,100651.81
2022-11-27T21:14:28.709Z,100643.53
2022-11-27T21:17:04.444Z,100640.19
2022-11-27T21:19:32.991Z,100641.50
2022-11-27T21:22:00.840Z,100634.19
2022-11-27T21:24:30.402Z,100630.25
2022-11-27T21:26:58.316Z,100631.97
2022-11-27T21:29:28.072Z,100629.38
2022-11-27T21:31:57.849Z,100628.34
2022-11-27T21:34:27.547Z,100613.69
2022-11-27T21:36:55.594Z,100622.25
2022-11-27T21:39:25.827Z,100618.72
2022-11-27T21:41:57.446Z,100627.22
2022-11-27T21:44:27.929Z,100622.59
2022-11-27T21:46:56.731Z,100627.91
2022-11-27T21:49:26.635Z,100626.72
2022-11-27T21:51:56.290Z,100624.06
2022-11-27T21:54:25.883Z,100632.81
2022-11-27T21:56:55.572Z,100643.53
2022-11-27T21:59:25.172Z,100634.38
2022-11-27T22:01:57.290Z,100628.88
2022-11-27T22:04:26.418Z,100629.88
2022-11-27T22:06:55.911Z,100627.22
2022-11-27T22:09:25.486Z,100622.50
2022-11-27T22:11:55.109Z,100626.31
2022-11-27T22:14:24.738Z,100627.38
2022-11-27T22:16:56.461Z,100626.19
2022-11-27T22:19:27.024Z,100620.09
2022-11-27T22:21:56.603Z,100619.25
2022-11-27T22:24:26.183Z,100615.53
2022-11-27T22:26:56.601Z,100617.41
2022-11-27T22:29:24.476Z,100618.56
2022-11-27T22:31:54.435Z,100615.47
2022-11-27T22:34:23.979Z,100617.56
2022-11-27T22:36:56.534Z,100616.47
2022-11-27T22:39:25.188Z,100613.06
2022-11-27T22:41:54.877Z,100613.69
2022-11-27T22:44:24.391Z,100606.13
2022-11-27T22:46:53.816Z,100605.09
2022-11-27T22:49:23.399Z,100604.94
2022-11-27T22:51:52.882Z,100603.97
2022-11-27T22:54:23.146Z,100602.59
2022-11-27T22:56:52.736Z,100612.38
2022-11-27T22:59:37.593Z,100606.97
2022-11-27T23:02:07.682Z,100610.03
2022-11-27T23:04:38.185Z,100607.56
2022-11-27T23:07:07.963Z,100605.25
2022-11-27T23:09:37.660Z,100608.78
2022-11-27T23:12:07.426Z,100609.56
2022-11-27T23:14:37.100Z,100599.84
2022-11-27T23:17:06.653Z,100606.00
2022-11-27T23:19:36.291Z,100604.03
2022-11-27T23:22:05.924Z,100606.13
2022-11-27T23:24:35.518Z,100606.78
2022-11-27T23:27:05.018Z,100600.25
2022-11-27T23:29:34.538Z,100598.53
2022-11-27T23:32:04.155Z,100596.50
2022-11-27T23:34:33.713Z,100597.78
2022-11-27T23:37:03.336Z,100595.47
2022-11-27T23:39:32.851Z,100588.09
2022-11-27T23:42:02.420Z,100586.63
2022-11-27T23:44:31.956Z,100581.69
2022-11-27T23:47:01.527Z,100573.59
2022-11-27T23:49:31.025Z,100570.81
2022-11-27T23:52:00.483Z,100566.00
2022-11-27T23:54:30.100Z,100560.69
2022-11-27T23:56:59.582Z,100562.88
2022-11-27T23:59:29.037Z,100554.09
